createdAt,value
2022-08-02T00:00:12.566Z,17.65
2022-08-02T00:02:46.864Z,17.69
2022-08-02T00:05:20.178Z,17.61
2022-08-02T00:07:48.293Z,17.60
2022-08-02T00:10:24.362Z,17.58
2022-08-02T00:12:53.226Z,17.57
2022-08-02T00:15:20.544Z,17.66
2022-08-02T00:17:48.630Z,17.56
2022-08-02T00:20:29.262Z,17.66
2022-08-02T00:22:58.338Z,17.57
2022-08-02T00:25:32.161Z,17.71
2022-08-02T00:28:00.091Z,17.84
2022-08-02T00:30:34.234Z,17.88
2022-08-02T00:33:02.893Z,17.94
2022-08-02T00:35:40.709Z,17.94
2022-08-02T00:38:23.345Z,18.17
2022-08-02T00:40:58.217Z,18.17
2022-08-02T00:43:57.613Z,18.24
2022-08-02T00:46:24.649Z,18.07
2022-08-02T00:48:56.824Z,18.09
2022-08-02T00:51:46.620Z,17.99
2022-08-02T00:54:38.617Z,17.97
2022-08-02T00:57:07.898Z,18.18
2022-08-02T00:59:35.996Z,18.00
2022-08-02T01:02:18.674Z,17.75
2022-08-02T01:04:46.785Z,17.94
2022-08-02T01:07:19.706Z,17.93
2022-08-02T01:09:48.844Z,17.89
2022-08-02T01:12:20.211Z,17.66
2022-08-02T01:14:58.952Z,17.72
2022-08-02T01:18:03.198Z,17.59
2022-08-02T01:21:17.306Z,17.26
2022-08-02T01:24:11.204Z,17.10
2022-08-02T01:27:00.045Z,17.07
2022-08-02T01:29:34.850Z,17.16
2022-08-02T01:32:26.118Z,17.12
2022-08-02T01:35:50.492Z,16.98
2022-08-02T01:38:34.155Z,17.01
2022-08-02T01:41:12.684Z,17.04
2022-08-02T01:44:03.396Z,17.21
2022-08-02T01:46:33.402Z,17.11
2022-08-02T01:49:06.818Z,17.14
2022-08-02T01:52:04.678Z,17.06
2022-08-02T01:54:40.285Z,17.02
2022-08-02T01:57:12.468Z,16.99
2022-08-02T01:59:42.680Z,17.02
2022-08-02T02:02:32.747Z,16.90
2022-08-02T02:05:03.342Z,16.91
2022-08-02T02:07:35.572Z,17.02
2022-08-02T02:10:04.401Z,16.90
2022-08-02T02:12:41.903Z,16.87
2022-08-02T02:15:11.836Z,16.72
2022-08-02T02:17:52.044Z,16.67
2022-08-02T02:20:34.746Z,16.67
2022-08-02T02:23:03.141Z,16.70
2022-08-02T02:25:35.882Z,16.73
2022-08-02T02:28:10.017Z,16.74
2022-08-02T02:30:40.524Z,16.57
2022-08-02T02:33:11.987Z,16.53
2022-08-02T02:35:41.840Z,16.60
2022-08-02T02:38:13.969Z,16.57
2022-08-02T02:40:42.414Z,16.55
2022-08-02T02:43:12.526Z,16.47
2022-08-02T02:45:41.188Z,16.41
2022-08-02T02:48:09.941Z,16.44
2022-08-02T02:50:37.541Z,16.33
2022-08-02T02:53:07.265Z,16.43
2022-08-02T02:55:34.772Z,16.29
2022-08-02T02:58:04.855Z,16.36
2022-08-02T03:00:50.970Z,16.30
2022-08-02T03:03:21.483Z,16.53
2022-08-02T03:05:56.987Z,16.58
2022-08-02T03:08:24.159Z,16.61
2022-08-02T03:10:52.274Z,16.39
2022-08-02T03:13:23.231Z,16.37
2022-08-02T03:16:01.097Z,16.33
2022-08-02T03:18:36.381Z,16.34
2022-08-02T03:21:13.309Z,16.26
2022-08-02T03:23:43.691Z,16.12
2022-08-02T03:26:14.961Z,16.10
2022-08-02T03:28:44.019Z,16.30
2022-08-02T03:31:13.143Z,16.26
2022-08-02T03:33:40.704Z,16.30
2022-08-02T03:36:12.631Z,16.35
2022-08-02T03:38:44.161Z,16.18
2022-08-02T03:41:16.925Z,16.20
2022-08-02T03:43:46.935Z,16.22
2022-08-02T03:46:16.173Z,16.13
2022-08-02T03:48:45.008Z,16.21
2022-08-02T03:51:14.240Z,16.14
2022-08-02T03:53:48.094Z,16.33
2022-08-02T03:56:18.079Z,16.32
2022-08-02T03:58:49.014Z,16.20
2022-08-02T04:01:17.058Z,16.11
2022-08-02T04:04:00.421Z,16.12
2022-08-02T04:06:40.121Z,16.07
2022-08-02T04:09:10.161Z,16.23
2022-08-02T04:11:38.201Z,16.18
2022-08-02T04:14:11.389Z,16.18
2022-08-02T04:16:42.791Z,16.27
2022-08-02T04:19:17.757Z,16.27
2022-08-02T04:21:52.087Z,16.35
2022-08-02T04:24:32.477Z,16.41
2022-08-02T04:27:19.105Z,16.51
2022-08-02T04:29:50.063Z,16.69
2022-08-02T04:32:24.372Z,16.65
2022-08-02T04:35:18.586Z,16.72
2022-08-02T04:38:08.172Z,16.87
2022-08-02T04:40:28.197Z,17.01
2022-08-02T04:43:02.128Z,17.14
2022-08-02T04:45:31.845Z,17.23
2022-08-02T04:48:05.351Z,17.43
2022-08-02T04:50:35.291Z,17.70
2022-08-02T04:53:02.501Z,17.85
2022-08-02T04:55:30.524Z,17.96
2022-08-02T04:57:59.100Z,18.01
2022-08-02T05:00:35.533Z,18.03
2022-08-02T05:03:03.077Z,18.08
2022-08-02T05:05:31.356Z,18.07
2022-08-02T05:07:59.653Z,18.05
2022-08-02T05:10:30.079Z,18.11
2022-08-02T05:12:57.205Z,17.98
2022-08-02T05:15:24.316Z,18.12
2022-08-02T05:17:52.308Z,18.11
2022-08-02T05:20:20.232Z,18.19
2022-08-02T05:22:49.207Z,18.22
2022-08-02T05:25:16.310Z,18.30
2022-08-02T05:27:44.394Z,18.35
2022-08-02T05:30:12.782Z,18.43
2022-08-02T05:32:48.731Z,18.49
2022-08-02T05:35:20.733Z,18.53
2022-08-02T05:37:57.167Z,18.58
2022-08-02T05:40:31.292Z,18.59
2022-08-02T05:43:00.515Z,18.64
2022-08-02T05:45:28.765Z,18.68
2022-08-02T05:47:56.855Z,18.78
2022-08-02T05:50:28.938Z,18.82
2022-08-02T05:53:25.273Z,18.91
2022-08-02T05:56:06.658Z,19.06
2022-08-02T05:58:55.648Z,19.10
2022-08-02T06:01:34.322Z,19.25
2022-08-02T06:04:09.841Z,19.27
2022-08-02T06:06:44.479Z,19.39
2022-08-02T06:09:23.223Z,19.52
2022-08-02T06:12:10.936Z,19.47
2022-08-02T06:14:38.378Z,19.72
2022-08-02T06:17:06.771Z,19.86
2022-08-02T06:19:50.987Z,19.89
2022-08-02T06:22:42.409Z,19.93
2022-08-02T06:25:50.918Z,20.01
2022-08-02T06:28:20.412Z,20.11
2022-08-02T06:30:53.048Z,20.21
2022-08-02T06:33:21.288Z,20.27
2022-08-02T06:35:56.940Z,20.36
2022-08-02T06:38:27.897Z,20.46
2022-08-02T06:41:06.397Z,20.55
2022-08-02T06:44:13.753Z,20.78
2022-08-02T06:47:10.232Z,20.96
2022-08-02T06:49:51.377Z,20.99
2022-08-02T06:52:27.728Z,21.11
2022-08-02T06:55:00.383Z,21.24
2022-08-02T06:57:34.309Z,21.30
2022-08-02T07:00:07.274Z,21.24
2022-08-02T07:02:38.001Z,21.17
2022-08-02T07:05:05.793Z,21.29
2022-08-02T07:07:33.627Z,21.41
2022-08-02T07:10:06.981Z,21.49
2022-08-02T07:12:36.106Z,21.51
2022-08-02T07:15:12.827Z,21.66
2022-08-02T07:17:42.853Z,21.81
2022-08-02T07:20:10.389Z,21.81
2022-08-02T07:22:40.310Z,21.79
2022-08-02T07:25:08.341Z,21.82
2022-08-02T07:27:35.602Z,21.92
2022-08-02T07:30:05.513Z,22.03
2022-08-02T07:32:33.420Z,22.19
2022-08-02T07:35:03.407Z,22.36
2022-08-02T07:37:58.076Z,22.52
2022-08-02T07:40:25.628Z,22.70
2022-08-02T07:43:02.443Z,22.93
2022-08-02T07:45:55.747Z,22.97
2022-08-02T07:48:23.803Z,22.98
2022-08-02T07:50:54.650Z,22.79
2022-08-02T07:53:30.585Z,22.75
2022-08-02T07:56:11.175Z,22.96
2022-08-02T07:58:43.397Z,23.26
2022-08-02T08:01:11.651Z,23.49
2022-08-02T08:03:46.136Z,23.49
2022-08-02T08:06:15.324Z,23.68
2022-08-02T08:08:44.414Z,23.77
2022-08-02T08:11:12.547Z,23.97
2022-08-02T08:13:39.660Z,23.78
2022-08-02T08:16:06.814Z,23.56
2022-08-02T08:18:35.581Z,23.51
2022-08-02T08:21:08.731Z,23.55
2022-08-02T08:23:36.321Z,23.58
2022-08-02T08:26:04.834Z,23.51
2022-08-02T08:28:33.092Z,23.69
2022-08-02T08:31:00.329Z,24.02
2022-08-02T08:33:29.351Z,24.22
2022-08-02T08:36:04.889Z,24.47
2022-08-02T08:38:31.980Z,24.43
2022-08-02T08:40:59.240Z,24.01
2022-08-02T08:43:30.384Z,24.09
2022-08-02T08:45:58.520Z,24.15
2022-08-02T08:48:31.988Z,24.31
2022-08-02T08:51:12.159Z,24.68
2022-08-02T08:53:46.748Z,24.91
2022-08-02T08:56:16.630Z,25.13
2022-08-02T08:58:48.424Z,25.46
2022-08-02T09:01:17.736Z,25.32
2022-08-02T09:03:51.274Z,25.38
2022-08-02T09:06:19.388Z,25.35
2022-08-02T09:08:46.591Z,25.31
2022-08-02T09:11:24.561Z,24.90
2022-08-02T09:14:01.673Z,24.71
2022-08-02T09:16:31.636Z,24.86
2022-08-02T09:18:59.631Z,24.91
2022-08-02T09:21:42.060Z,24.76
2022-08-02T09:24:20.463Z,25.14
2022-08-02T09:26:54.592Z,25.66
2022-08-02T09:29:26.977Z,25.97
2022-08-02T09:32:03.880Z,25.81
2022-08-02T09:34:52.472Z,25.54
2022-08-02T09:37:50.116Z,25.48
2022-08-02T09:40:17.132Z,25.41
2022-08-02T09:43:04.195Z,25.34
2022-08-02T09:45:34.906Z,25.00
2022-08-02T09:48:09.430Z,25.33
2022-08-02T09:50:42.871Z,25.73
2022-08-02T09:53:28.136Z,26.04
2022-08-02T09:55:58.509Z,26.55
2022-08-02T09:58:52.228Z,26.47
2022-08-02T10:01:36.913Z,26.92
2022-08-02T10:04:15.718Z,27.02
2022-08-02T10:06:49.719Z,26.94
2022-08-02T10:09:17.354Z,27.07
2022-08-02T10:11:44.521Z,27.33
2022-08-02T10:14:12.368Z,27.20
2022-08-02T10:16:41.761Z,27.31
2022-08-02T10:19:13.858Z,27.45
2022-08-02T10:21:57.032Z,27.18
2022-08-02T10:24:28.106Z,27.10
2022-08-02T10:26:59.411Z,27.30
2022-08-02T10:29:53.416Z,27.62
2022-08-02T10:32:23.371Z,27.98
2022-08-02T10:35:20.002Z,27.91
2022-08-02T10:38:01.646Z,28.17
2022-08-02T10:40:49.265Z,27.90
2022-08-02T10:43:44.077Z,27.87
2022-08-02T10:46:24.824Z,28.14
2022-08-02T10:52:02.993Z,28.99
2022-08-02T10:54:40.089Z,29.46
2022-08-02T10:57:31.612Z,29.92
2022-08-02T11:00:10.124Z,30.33
2022-08-02T11:02:52.955Z,29.68
2022-08-02T11:05:42.563Z,29.13
2022-08-02T11:08:23.479Z,29.32
2022-08-02T11:10:50.578Z,29.59
2022-08-02T11:13:26.887Z,29.35
2022-08-02T11:16:10.779Z,29.78
2022-08-02T11:19:00.553Z,30.16
2022-08-02T11:21:33.118Z,30.25
2022-08-02T11:24:29.942Z,29.91
2022-08-02T11:27:08.647Z,29.69
2022-08-02T11:29:46.641Z,29.60
2022-08-02T11:32:31.003Z,29.17
2022-08-02T11:35:00.831Z,29.67
2022-08-02T11:37:38.795Z,29.98
2022-08-02T11:40:19.507Z,29.87
2022-08-02T11:42:51.234Z,29.97
2022-08-02T11:45:29.746Z,30.50
2022-08-02T11:47:57.587Z,31.07
2022-08-02T11:50:29.943Z,31.62
2022-08-02T11:53:26.721Z,32.08
2022-08-02T11:55:57.463Z,32.36
2022-08-02T11:58:31.630Z,32.58
2022-08-02T12:00:58.868Z,32.39
2022-08-02T12:03:50.603Z,32.34
2022-08-02T12:06:20.838Z,31.89
2022-08-02T12:08:54.625Z,32.29
2022-08-02T12:11:21.887Z,32.66
2022-08-02T12:13:57.093Z,32.53
2022-08-02T12:16:43.677Z,32.66
2022-08-02T12:19:20.884Z,32.96
2022-08-02T12:21:47.989Z,33.40
2022-08-02T12:24:37.709Z,33.84
2022-08-02T12:27:06.260Z,32.90
2022-08-02T12:29:58.511Z,32.73
2022-08-02T12:32:30.140Z,32.05
2022-08-02T12:35:15.420Z,30.91
2022-08-02T12:38:11.339Z,30.71
2022-08-02T12:40:39.072Z,31.06
2022-08-02T12:43:16.667Z,30.16
2022-08-02T12:45:56.807Z,30.12
2022-08-02T12:48:48.157Z,30.77
2022-08-02T12:51:56.312Z,31.94
2022-08-02T12:54:31.050Z,32.82
2022-08-02T12:56:59.252Z,32.46
2022-08-02T12:59:50.993Z,33.08
2022-08-02T13:02:18.536Z,33.76
2022-08-02T13:04:49.792Z,34.27
2022-08-02T13:07:19.799Z,34.71
2022-08-02T13:10:03.042Z,35.27
2022-08-02T13:12:33.516Z,35.73
2022-08-02T13:15:02.843Z,34.71
2022-08-02T13:17:30.118Z,35.04
2022-08-02T13:19:57.194Z,34.42
2022-08-02T13:22:24.517Z,34.28
2022-08-02T13:25:00.940Z,32.20
2022-08-02T13:27:28.772Z,33.08
2022-08-02T13:29:58.938Z,33.18
2022-08-02T13:32:29.194Z,33.73
2022-08-02T13:35:01.446Z,33.72
2022-08-02T13:37:28.522Z,33.87
2022-08-02T13:40:19.990Z,34.07
2022-08-02T13:42:44.631Z,33.74
2022-08-02T13:45:13.804Z,34.13
2022-08-02T13:47:57.178Z,34.98
2022-08-02T13:50:32.527Z,35.69
2022-08-02T13:52:59.626Z,36.04
2022-08-02T13:55:26.818Z,36.55
2022-08-02T13:57:54.472Z,36.36
2022-08-02T14:00:35.642Z,36.60
2022-08-02T14:03:07.793Z,35.98
2022-08-02T14:05:47.496Z,36.39
2022-08-02T14:08:23.118Z,36.46
2022-08-02T14:10:52.363Z,35.90
2022-08-02T14:13:24.635Z,35.62
2022-08-02T14:15:51.829Z,34.87
2022-08-02T14:18:18.964Z,34.74
2022-08-02T14:20:46.262Z,34.87
2022-08-02T14:23:15.465Z,35.56
2022-08-02T14:25:43.797Z,36.09
2022-08-02T14:28:11.038Z,36.64
2022-08-02T14:30:39.277Z,36.94
2022-08-02T14:33:06.483Z,36.91
2022-08-02T14:35:33.955Z,36.98
2022-08-02T14:38:02.095Z,37.25
2022-08-02T14:40:32.145Z,37.48
2022-08-02T14:43:01.385Z,37.90
2022-08-02T14:45:40.739Z,38.21
2022-08-02T14:48:11.769Z,37.98
2022-08-02T14:50:46.536Z,38.07
2022-08-02T14:53:21.821Z,38.07
2022-08-02T14:55:51.339Z,37.64
2022-08-02T14:58:18.518Z,37.50
2022-08-02T15:00:54.869Z,37.76
2022-08-02T15:03:21.978Z,37.66
2022-08-02T15:05:50.473Z,37.80
2022-08-02T15:08:19.464Z,38.03
2022-08-02T15:10:56.757Z,38.02
2022-08-02T15:13:25.827Z,38.16
2022-08-02T15:15:54.001Z,38.29
2022-08-02T15:18:21.439Z,38.12
2022-08-02T15:21:52.649Z,38.01
2022-08-02T15:24:02.663Z,38.09
2022-08-02T15:26:39.701Z,37.84
2022-08-02T15:29:14.912Z,37.74
2022-08-02T15:31:43.620Z,37.70
2022-08-02T15:34:10.965Z,37.46
2022-08-02T15:36:52.476Z,37.59
2022-08-02T15:39:19.736Z,37.55
2022-08-02T15:41:46.807Z,37.40
2022-08-02T15:44:14.888Z,37.45
2022-08-02T15:46:43.976Z,37.31
2022-08-02T15:49:11.283Z,36.81
2022-08-02T15:51:38.363Z,37.08
2022-08-02T15:54:05.463Z,37.02
2022-08-02T15:56:33.481Z,36.91
2022-08-02T15:59:00.534Z,36.81
2022-08-02T16:01:36.960Z,36.64
2022-08-02T16:04:07.350Z,36.74
2022-08-02T16:06:36.993Z,36.63
2022-08-02T16:09:08.449Z,36.68
2022-08-02T16:11:35.630Z,36.68
2022-08-02T16:14:08.876Z,36.54
2022-08-02T16:16:36.692Z,36.35
2022-08-02T16:19:45.937Z,36.15
2022-08-02T16:21:58.378Z,35.76
2022-08-02T16:24:26.509Z,35.56
2022-08-02T16:26:53.583Z,35.33
2022-08-02T16:29:21.614Z,35.03
2022-08-02T16:31:54.456Z,34.50
2022-08-02T16:34:23.492Z,34.28
2022-08-02T16:36:50.589Z,34.16
2022-08-02T16:39:22.711Z,34.01
2022-08-02T16:41:53.151Z,33.91
2022-08-02T16:44:29.272Z,33.72
2022-08-02T16:47:13.994Z,33.56
2022-08-02T16:50:06.538Z,33.40
2022-08-02T16:52:34.362Z,33.14
2022-08-02T16:55:02.214Z,33.10
2022-08-02T16:57:43.166Z,32.93
2022-08-02T17:00:15.585Z,32.69
2022-08-02T17:02:43.399Z,32.43
2022-08-02T17:05:14.634Z,32.22
2022-08-02T17:08:07.723Z,32.10
2022-08-02T17:10:34.908Z,31.94
2022-08-02T17:13:11.380Z,31.76
2022-08-02T17:16:01.329Z,31.62
2022-08-02T17:18:33.140Z,31.37
2022-08-02T17:21:04.290Z,31.27
2022-08-02T17:24:04.025Z,31.19
2022-08-02T17:26:19.888Z,30.99
2022-08-02T17:29:17.755Z,30.85
2022-08-02T17:31:37.291Z,30.81
2022-08-02T17:34:11.996Z,30.65
2022-08-02T17:36:41.244Z,30.44
2022-08-02T17:39:08.383Z,30.26
2022-08-02T17:41:48.951Z,30.04
2022-08-02T17:44:37.566Z,29.84
2022-08-02T17:47:06.477Z,29.60
2022-08-02T17:49:36.116Z,29.42
2022-08-02T17:52:47.795Z,29.25
2022-08-02T17:54:52.736Z,29.03
2022-08-02T17:57:55.696Z,28.90
2022-08-02T18:00:15.277Z,28.56
2022-08-02T18:02:43.857Z,28.22
2022-08-02T18:05:20.397Z,28.08
2022-08-02T18:10:37.827Z,27.69
2022-08-02T18:13:05.497Z,27.59
2022-08-02T18:15:36.696Z,27.40
2022-08-02T18:18:03.881Z,27.23
2022-08-02T18:20:31.394Z,27.05
2022-08-02T18:22:59.061Z,26.83
2022-08-02T18:25:37.729Z,26.53
2022-08-02T18:28:15.437Z,26.29
2022-08-02T18:30:44.635Z,26.12
2022-08-02T18:33:57.984Z,25.93
2022-08-02T18:35:59.731Z,25.65
2022-08-02T18:38:31.894Z,25.45
2022-08-02T18:41:03.070Z,25.37
2022-08-02T18:43:34.487Z,25.21
2022-08-02T18:46:15.317Z,24.89
2022-08-02T18:48:48.056Z,23.96
2022-08-02T18:51:40.682Z,23.52
2022-08-02T18:54:08.534Z,23.60
2022-08-02T19:00:20.558Z,24.07
2022-08-02T19:02:54.798Z,23.94
2022-08-02T19:05:24.290Z,23.82
2022-08-02T19:08:12.338Z,23.73
2022-08-02T19:10:49.073Z,23.70
2022-08-02T19:13:52.287Z,23.63
2022-08-02T19:16:52.889Z,23.36
2022-08-02T19:19:28.847Z,23.30
2022-08-02T19:22:18.051Z,23.20
2022-08-02T19:25:00.196Z,22.99
2022-08-02T19:27:32.683Z,22.78
2022-08-02T19:30:07.612Z,22.60
2022-08-02T19:32:40.240Z,22.68
2022-08-02T19:35:36.968Z,22.66
2022-08-02T19:38:30.560Z,22.57
2022-08-02T19:41:01.701Z,22.52
2022-08-02T19:44:25.767Z,22.37
2022-08-02T19:46:33.516Z,22.14
2022-08-02T19:49:16.352Z,21.96
2022-08-02T19:51:55.029Z,21.96
2022-08-02T19:54:44.801Z,21.90
2022-08-02T19:57:19.402Z,21.80
2022-08-02T19:59:53.869Z,21.70
2022-08-02T20:02:29.324Z,21.65
2022-08-02T20:05:16.014Z,21.57
2022-08-02T20:07:54.277Z,21.39
2022-08-02T20:10:25.106Z,21.18
2022-08-02T20:12:56.837Z,21.22
2022-08-02T20:15:51.899Z,21.24
2022-08-02T20:18:11.155Z,21.13
2022-08-02T20:20:51.675Z,21.03
2022-08-02T20:23:33.675Z,20.99
2022-08-02T20:26:09.018Z,20.91
2022-08-02T20:28:36.348Z,20.82
2022-08-02T20:31:19.557Z,20.74
2022-08-02T20:33:55.514Z,20.69
2022-08-02T20:36:23.751Z,20.67
2022-08-02T20:39:06.279Z,20.58
2022-08-02T20:42:07.927Z,20.50
2022-08-02T20:44:57.791Z,20.46
2022-08-02T20:47:39.611Z,20.20
2022-08-02T20:50:31.667Z,20.00
2022-08-02T20:53:03.180Z,19.96
2022-08-02T20:55:36.037Z,19.89
2022-08-02T20:58:14.967Z,19.96
2022-08-02T21:00:52.717Z,19.86
2022-08-02T21:03:20.549Z,19.79
2022-08-02T21:06:17.049Z,19.66
2022-08-02T21:08:53.220Z,19.55
2022-08-02T21:11:33.491Z,19.52
2022-08-02T21:14:07.390Z,19.04
2022-08-02T21:16:37.383Z,19.13
2022-08-02T21:19:07.955Z,19.37
2022-08-02T21:21:37.863Z,19.39
2022-08-02T21:24:05.529Z,19.13
2022-08-02T21:26:37.658Z,18.99
2022-08-02T21:29:05.039Z,19.04
2022-08-02T21:31:36.121Z,18.78
2022-08-02T21:34:21.676Z,18.82
2022-08-02T21:36:53.536Z,18.91
2022-08-02T21:39:22.055Z,19.01
2022-08-02T21:41:50.331Z,18.98
2022-08-02T21:44:22.777Z,18.99
2022-08-02T21:46:54.924Z,18.95
2022-08-02T21:49:41.044Z,18.82
2022-08-02T21:52:12.810Z,18.72
2022-08-02T21:54:40.996Z,18.64
2022-08-02T21:57:16.828Z,18.67
2022-08-02T21:59:52.876Z,18.67
2022-08-02T22:02:47.837Z,18.73
2022-08-02T22:05:14.743Z,18.30
2022-08-02T22:07:45.835Z,18.25
2022-08-02T22:10:19.226Z,18.01
2022-08-02T22:12:47.447Z,18.02
2022-08-02T22:15:35.840Z,17.82
2022-08-02T22:18:08.483Z,17.68
2022-08-02T22:20:44.845Z,17.65
2022-08-02T22:23:51.178Z,17.69
2022-08-02T22:26:19.439Z,17.51
2022-08-02T22:28:51.103Z,17.48
2022-08-02T22:34:26.495Z,17.42
2022-08-02T22:37:00.822Z,17.53
2022-08-02T22:39:29.023Z,17.65
2022-08-02T22:42:05.638Z,17.72
2022-08-02T22:44:36.094Z,17.68
2022-08-02T22:47:14.807Z,17.52
2022-08-02T22:49:52.877Z,17.63
2022-08-02T22:52:23.909Z,17.52
2022-08-02T22:54:51.234Z,17.39
2022-08-02T22:57:30.538Z,17.28
2022-08-02T22:58:59.610Z,27.96
2022-08-02T22:59:04.978Z,17.47
2022-08-02T23:00:10.172Z,17.25
2022-08-02T23:02:49.412Z,17.37
2022-08-02T23:05:17.710Z,17.30
2022-08-02T23:07:49.950Z,17.39
2022-08-02T23:10:17.058Z,17.34
2022-08-02T23:12:56.477Z,17.06
2022-08-02T23:15:27.637Z,16.77
2022-08-02T23:18:14.018Z,16.63
2022-08-02T23:20:54.430Z,16.82
2022-08-02T23:23:34.884Z,16.78
2022-08-02T23:26:04.167Z,16.86
2022-08-02T23:28:32.560Z,17.08
2022-08-02T23:31:49.441Z,17.09
2022-08-02T23:34:18.556Z,17.08
2022-08-02T23:36:47.734Z,16.85
2022-08-02T23:39:16.681Z,16.78
2022-08-02T23:42:03.299Z,16.79
2022-08-02T23:44:31.325Z,16.71
2022-08-02T23:47:00.670Z,16.75
2022-08-02T23:49:30.974Z,16.79
2022-08-02T23:52:01.720Z,16.86
2022-08-02T23:54:30.204Z,16.91
2022-08-02T23:56:57.463Z,16.92
2022-08-02T23:59:25.580Z,16.87
